sensor_id;sensor_type;location;lat;lon;timestamp;pressure;altitude;pressure_sealevel;temperature;humidity
31285;BME280;56605;51.516;6.742;2023-10-13T00:02:16;101089.31;;;20.38;100.00
31285;BME280;56605;51.516;6.742;2023-10-13T00:04:44;101087.44;;;20.38;100.00
31285;BME280;56605;51.516;6.742;2023-10-13T00:07:11;101095.25;;;20.47;100.00
31285;BME280;56605;51.516;6.742;2023-10-13T00:09:36;101085.09;;;20.42;100.00
31285;BME280;56605;51.516;6.742;2023-10-13T00:12:05;101079.84;;;20.47;100.00
31285;BME280;56605;51.516;6.742;2023-10-13T00:14:37;101068.84;;;20.61;100.00
31285;BME280;56605;51.516;6.742;2023-10-13T00:17:04;101072.28;;;20.49;100.00
31285;BME280;56605;51.516;6.742;2023-10-13T00:19:35;101064.84;;;20.45;100.00
31285;BME280;56605;51.516;6.742;2023-10-13T00:22:08;101062.34;;;20.62;100.00
31285;BME280;56605;51.516;6.742;2023-10-13T00:24:35;101067.00;;;20.73;100.00
31285;BME280;56605;51.516;6.742;2023-10-13T00:27:18;101069.50;;;20.56;100.00
31285;BME280;56605;51.516;6.742;2023-10-13T00:30:10;101060.25;;;20.45;100.00
31285;BME280;56605;51.516;6.742;2023-10-13T00:32:52;101058.88;;;20.55;100.00
31285;BME280;56605;51.516;6.742;2023-10-13T00:35:31;101038.50;;;20.52;100.00
31285;BME280;56605;51.516;6.742;2023-10-13T00:38:07;101049.78;;;20.49;100.00
31285;BME280;56605;51.516;6.742;2023-10-13T00:40:39;101047.88;;;20.49;100.00
31285;BME280;56605;51.516;6.742;2023-10-13T00:43:05;101044.28;;;20.56;100.00
31285;BME280;56605;51.516;6.742;2023-10-13T00:45:54;101044.50;;;20.73;100.00
31285;BME280;56605;51.516;6.742;2023-10-13T00:48:29;101037.72;;;20.63;100.00
31285;BME280;56605;51.516;6.742;2023-10-13T00:51:03;101042.28;;;20.82;100.00
31285;BME280;56605;51.516;6.742;2023-10-13T00:53:32;101039.88;;;20.92;100.00
31285;BME280;56605;51.516;6.742;2023-10-13T00:56:00;101037.72;;;20.63;100.00
31285;BME280;56605;51.516;6.742;2023-10-13T00:58:32;101015.75;;;20.84;100.00
31285;BME280;56605;51.516;6.742;2023-10-13T01:01:00;101028.78;;;20.75;100.00
31285;BME280;56605;51.516;6.742;2023-10-13T01:03:46;101019.47;;;20.71;100.00
31285;BME280;56605;51.516;6.742;2023-10-13T01:06:14;101017.31;;;20.61;100.00
31285;BME280;56605;51.516;6.742;2023-10-13T01:08:42;101015.28;;;20.56;100.00
31285;BME280;56605;51.516;6.742;2023-10-13T01:11:09;101008.34;;;20.60;100.00
31285;BME280;56605;51.516;6.742;2023-10-13T01:13:35;101013.16;;;20.58;100.00
31285;BME280;56605;51.516;6.742;2023-10-13T01:16:06;101016.16;;;20.69;100.00
31285;BME280;56605;51.516;6.742;2023-10-13T01:18:33;101013.75;;;20.60;100.00
31285;BME280;56605;51.516;6.742;2023-10-13T01:21:05;101001.66;;;20.75;100.00
31285;BME280;56605;51.516;6.742;2023-10-13T01:23:32;101001.72;;;20.56;100.00
31285;BME280;56605;51.516;6.742;2023-10-13T01:26:03;100995.84;;;20.59;100.00
31285;BME280;56605;51.516;6.742;2023-10-13T01:28:30;100995.19;;;20.76;100.00
31285;BME280;56605;51.516;6.742;2023-10-13T01:31:09;100987.25;;;20.62;100.00
31285;BME280;56605;51.516;6.742;2023-10-13T01:36:58;100987.53;;;20.73;100.00
31285;BME280;56605;51.516;6.742;2023-10-13T01:39:30;100983.81;;;20.55;100.00
31285;BME280;56605;51.516;6.742;2023-10-13T01:41:55;100976.16;;;20.64;100.00
31285;BME280;56605;51.516;6.742;2023-10-13T01:44:22;100979.34;;;20.61;100.00
31285;BME280;56605;51.516;6.742;2023-10-13T01:46:47;100977.63;;;20.78;100.00
31285;BME280;56605;51.516;6.742;2023-10-13T01:49:13;100966.19;;;20.76;100.00
31285;BME280;56605;51.516;6.742;2023-10-13T01:51:40;100967.50;;;20.86;100.00
31285;BME280;56605;51.516;6.742;2023-10-13T01:54:06;100956.47;;;20.69;100.00
31285;BME280;56605;51.516;6.742;2023-10-13T01:56:36;100960.78;;;20.88;100.00
31285;BME280;56605;51.516;6.742;2023-10-13T01:59:08;100959.00;;;20.82;100.00
31285;BME280;56605;51.516;6.742;2023-10-13T02:01:34;100955.25;;;20.83;100.00
31285;BME280;56605;51.516;6.742;2023-10-13T02:04:01;100948.75;;;20.84;100.00
31285;BME280;56605;51.516;6.742;2023-10-13T02:06:34;100946.19;;;20.89;100.00
31285;BME280;56605;51.516;6.742;2023-10-13T02:09:05;100933.13;;;20.68;100.00
31285;BME280;56605;51.516;6.742;2023-10-13T02:11:51;100938.47;;;20.74;100.00
31285;BME280;56605;51.516;6.742;2023-10-13T02:14:20;100919.88;;;20.90;100.00
31285;BME280;56605;51.516;6.742;2023-10-13T02:16:48;100928.53;;;20.68;100.00
31285;BME280;56605;51.516;6.742;2023-10-13T02:19:15;100924.53;;;20.71;100.00
31285;BME280;56605;51.516;6.742;2023-10-13T02:21:41;100919.53;;;20.98;100.00
31285;BME280;56605;51.516;6.742;2023-10-13T02:24:09;100909.41;;;20.94;100.00
31285;BME280;56605;51.516;6.742;2023-10-13T02:26:45;100908.63;;;20.86;100.00
31285;BME280;56605;51.516;6.742;2023-10-13T02:29:10;100908.19;;;20.89;100.00
31285;BME280;56605;51.516;6.742;2023-10-13T02:31:41;100907.75;;;20.93;100.00
31285;BME280;56605;51.516;6.742;2023-10-13T02:34:07;100906.75;;;20.87;100.00
31285;BME280;56605;51.516;6.742;2023-10-13T02:36:37;100900.91;;;20.90;100.00
31285;BME280;56605;51.516;6.742;2023-10-13T02:39:12;100898.81;;;20.73;100.00
31285;BME280;56605;51.516;6.742;2023-10-13T02:41:39;100898.63;;;20.87;100.00
31285;BME280;56605;51.516;6.742;2023-10-13T02:44:07;100891.09;;;20.89;100.00
31285;BME280;56605;51.516;6.742;2023-10-13T02:46:41;100886.69;;;20.88;100.00
31285;BME280;56605;51.516;6.742;2023-10-13T02:49:06;100888.16;;;20.90;100.00
31285;BME280;56605;51.516;6.742;2023-10-13T02:51:36;100882.53;;;20.73;100.00
31285;BME280;56605;51.516;6.742;2023-10-13T02:54:04;100884.72;;;20.83;100.00
31285;BME280;56605;51.516;6.742;2023-10-13T02:56:34;100876.69;;;20.88;100.00
31285;BME280;56605;51.516;6.742;2023-10-13T02:59:00;100878.84;;;20.98;100.00
31285;BME280;56605;51.516;6.742;2023-10-13T03:01:31;100872.47;;;20.93;100.00
31285;BME280;56605;51.516;6.742;2023-10-13T03:04:00;100870.69;;;20.98;100.00
31285;BME280;56605;51.516;6.742;2023-10-13T03:06:26;100856.84;;;20.76;100.00
31285;BME280;56605;51.516;6.742;2023-10-13T03:09:07;100868.34;;;20.90;100.00
31285;BME280;56605;51.516;6.742;2023-10-13T03:11:42;100854.06;;;20.95;100.00
31285;BME280;56605;51.516;6.742;2023-10-13T03:14:13;100856.56;;;20.96;100.00
31285;BME280;56605;51.516;6.742;2023-10-13T03:16:53;100846.66;;;21.14;100.00
31285;BME280;56605;51.516;6.742;2023-10-13T03:19:19;100846.66;;;21.26;100.00
31285;BME280;56605;51.516;6.742;2023-10-13T03:21:45;100841.22;;;21.02;100.00
31285;BME280;56605;51.516;6.742;2023-10-13T03:24:20;100832.69;;;20.74;100.00
31285;BME280;56605;51.516;6.742;2023-10-13T03:26:48;100845.53;;;20.79;100.00
31285;BME280;56605;51.516;6.742;2023-10-13T03:29:17;100830.69;;;20.82;100.00
31285;BME280;56605;51.516;6.742;2023-10-13T03:31:47;100827.84;;;20.76;100.00
31285;BME280;56605;51.516;6.742;2023-10-13T03:34:27;100831.25;;;20.84;100.00
31285;BME280;56605;51.516;6.742;2023-10-13T03:36:54;100825.34;;;20.75;100.00
31285;BME280;56605;51.516;6.742;2023-10-13T03:39:23;100816.13;;;20.52;100.00
31285;BME280;56605;51.516;6.742;2023-10-13T03:41:57;100813.47;;;20.33;100.00
31285;BME280;56605;51.516;6.742;2023-10-13T03:44:22;100801.09;;;20.37;100.00
31285;BME280;56605;51.516;6.742;2023-10-13T03:46:48;100801.03;;;20.44;100.00
31285;BME280;56605;51.516;6.742;2023-10-13T03:49:16;100806.59;;;20.19;100.00
31285;BME280;56605;51.516;6.742;2023-10-13T03:51:49;100792.81;;;20.20;100.00
31285;BME280;56605;51.516;6.742;2023-10-13T03:54:16;100792.03;;;20.32;100.00
31285;BME280;56605;51.516;6.742;2023-10-13T03:56:43;100787.69;;;20.43;100.00
31285;BME280;56605;51.516;6.742;2023-10-13T03:59:10;100787.56;;;20.25;100.00
31285;BME280;56605;51.516;6.742;2023-10-13T04:01:43;100777.41;;;20.21;100.00
31285;BME280;56605;51.516;6.742;2023-10-13T04:04:13;100780.72;;;20.35;100.00
31285;BME280;56605;51.516;6.742;2023-10-13T04:06:55;100773.78;;;20.51;100.00
31285;BME280;56605;51.516;6.742;2023-10-13T04:09:39;100768.47;;;20.32;100.00
31285;BME280;56605;51.516;6.742;2023-10-13T04:12:13;100763.69;;;20.15;100.00
31285;BME280;56605;51.516;6.742;2023-10-13T04:15:08;100760.06;;;20.22;100.00
31285;BME280;56605;51.516;6.742;2023-10-13T04:17:34;100755.84;;;20.26;100.00
31285;BME280;56605;51.516;6.742;2023-10-13T04:20:06;100750.56;;;20.31;100.00
31285;BME280;56605;51.516;6.742;2023-10-13T04:22:34;100751.72;;;20.23;100.00
31285;BME280;56605;51.516;6.742;2023-10-13T04:27:56;100735.19;;;20.13;100.00
31285;BME280;56605;51.516;6.742;2023-10-13T04:33:30;100731.00;;;20.41;100.00
31285;BME280;56605;51.516;6.742;2023-10-13T04:36:18;100733.22;;;20.32;100.00
31285;BME280;56605;51.516;6.742;2023-10-13T04:38:47;100716.03;;;20.38;100.00
31285;BME280;56605;51.516;6.742;2023-10-13T04:41:18;100708.59;;;20.34;100.00
31285;BME280;56605;51.516;6.742;2023-10-13T04:43:47;100708.94;;;20.49;100.00
31285;BME280;56605;51.516;6.742;2023-10-13T04:46:23;100711.56;;;20.68;100.00
31285;BME280;56605;51.516;6.742;2023-10-13T04:49:12;100708.72;;;20.51;100.00
31285;BME280;56605;51.516;6.742;2023-10-13T04:51:59;100700.00;;;20.49;100.00
31285;BME280;56605;51.516;6.742;2023-10-13T04:54:31;100691.41;;;20.52;100.00
31285;BME280;56605;51.516;6.742;2023-10-13T04:57:24;100686.44;;;20.49;100.00
31285;BME280;56605;51.516;6.742;2023-10-13T05:00:09;100669.34;;;20.24;100.00
31285;BME280;56605;51.516;6.742;2023-10-13T05:02:47;100665.81;;;20.12;100.00
31285;BME280;56605;51.516;6.742;2023-10-13T05:05:31;100669.09;;;20.26;100.00
31285;BME280;56605;51.516;6.742;2023-10-13T05:08:12;100666.31;;;20.45;100.00
31285;BME280;56605;51.516;6.742;2023-10-13T05:10:56;100665.00;;;20.35;100.00
31285;BME280;56605;51.516;6.742;2023-10-13T05:13:40;100658.03;;;20.27;100.00
31285;BME280;56605;51.516;6.742;2023-10-13T05:16:24;100665.34;;;20.27;100.00
31285;BME280;56605;51.516;6.742;2023-10-13T05:19:08;100652.59;;;20.39;100.00
31285;BME280;56605;51.516;6.742;2023-10-13T05:21:52;100663.69;;;20.50;100.00
31285;BME280;56605;51.516;6.742;2023-10-13T05:24:36;100656.03;;;20.35;100.00
31285;BME280;56605;51.516;6.742;2023-10-13T05:27:20;100661.81;;;20.38;100.00
31285;BME280;56605;51.516;6.742;2023-10-13T05:30:04;100647.31;;;20.33;100.00
31285;BME280;56605;51.516;6.742;2023-10-13T05:32:48;100661.13;;;20.43;100.00
31285;BME280;56605;51.516;6.742;2023-10-13T05:35:32;100660.03;;;20.44;100.00
31285;BME280;56605;51.516;6.742;2023-10-13T05:38:16;100664.28;;;20.64;100.00
31285;BME280;56605;51.516;6.742;2023-10-13T05:41:03;100672.38;;;20.76;100.00
31285;BME280;56605;51.516;6.742;2023-10-13T05:43:47;100676.78;;;20.65;100.00
31285;BME280;56605;51.516;6.742;2023-10-13T05:46:32;100689.63;;;20.82;100.00
31285;BME280;56605;51.516;6.742;2023-10-13T05:49:14;100680.66;;;20.69;100.00
31285;BME280;56605;51.516;6.742;2023-10-13T05:51:43;100676.88;;;20.70;100.00
31285;BME280;56605;51.516;6.742;2023-10-13T05:54:18;100680.31;;;20.65;100.00
31285;BME280;56605;51.516;6.742;2023-10-13T05:56:53;100679.47;;;20.77;100.00
31285;BME280;56605;51.516;6.742;2023-10-13T05:59:38;100673.69;;;20.97;100.00
31285;BME280;56605;51.516;6.742;2023-10-13T06:02:23;100658.22;;;20.86;100.00
31285;BME280;56605;51.516;6.742;2023-10-13T06:05:11;100648.31;;;21.03;100.00
31285;BME280;56605;51.516;6.742;2023-10-13T06:07:56;100651.41;;;20.71;100.00
31285;BME280;56605;51.516;6.742;2023-10-13T06:10:41;100644.31;;;20.94;100.00
31285;BME280;56605;51.516;6.742;2023-10-13T06:13:25;100623.50;;;23.56;100.00
31285;BME280;56605;51.516;6.742;2023-10-13T06:16:15;100617.56;;;23.09;100.00
31285;BME280;56605;51.516;6.742;2023-10-13T06:18:59;100617.66;;;22.52;100.00
31285;BME280;56605;51.516;6.742;2023-10-13T06:21:44;100630.06;;;22.43;100.00
31285;BME280;56605;51.516;6.742;2023-10-13T06:24:28;100627.44;;;22.14;100.00
31285;BME280;56605;51.516;6.742;2023-10-13T06:27:12;100639.22;;;22.20;100.00
31285;BME280;56605;51.516;6.742;2023-10-13T06:29:56;100632.38;;;22.17;100.00
31285;BME280;56605;51.516;6.742;2023-10-13T06:32:23;100640.72;;;21.76;100.00
31285;BME280;56605;51.516;6.742;2023-10-13T06:34:57;100624.81;;;22.02;100.00
31285;BME280;56605;51.516;6.742;2023-10-13T06:37:26;100616.22;;;22.27;100.00
31285;BME280;56605;51.516;6.742;2023-10-13T06:39:57;100616.16;;;22.22;100.00
31285;BME280;56605;51.516;6.742;2023-10-13T06:42:23;100621.59;;;22.05;100.00
31285;BME280;56605;51.516;6.742;2023-10-13T06:44:53;100614.84;;;22.25;100.00
31285;BME280;56605;51.516;6.742;2023-10-13T06:47:19;100608.75;;;21.83;100.00
31285;BME280;56605;51.516;6.742;2023-10-13T06:49:45;100612.72;;;21.92;100.00
31285;BME280;56605;51.516;6.742;2023-10-13T06:52:13;100617.09;;;21.76;100.00
31285;BME280;56605;51.516;6.742;2023-10-13T06:54:39;100615.78;;;21.79;100.00
31285;BME280;56605;51.516;6.742;2023-10-13T06:57:06;100615.09;;;21.89;100.00
31285;BME280;56605;51.516;6.742;2023-10-13T06:59:40;100612.31;;;21.84;100.00
31285;BME280;56605;51.516;6.742;2023-10-13T07:02:05;100616.31;;;21.81;100.00
31285;BME280;56605;51.516;6.742;2023-10-13T07:04:34;100607.97;;;21.53;100.00
31285;BME280;56605;51.516;6.742;2023-10-13T07:07:04;100619.03;;;21.81;100.00
31285;BME280;56605;51.516;6.742;2023-10-13T07:09:31;100616.09;;;22.00;100.00
31285;BME280;56605;51.516;6.742;2023-10-13T07:12:02;100606.47;;;21.92;100.00
31285;BME280;56605;51.516;6.742;2023-10-13T07:14:29;100614.94;;;22.13;100.00
31285;BME280;56605;51.516;6.742;2023-10-13T07:17:03;100619.47;;;22.07;100.00
31285;BME280;56605;51.516;6.742;2023-10-13T07:19:30;100614.09;;;22.12;100.00
31285;BME280;56605;51.516;6.742;2023-10-13T07:21:56;100609.41;;;22.25;100.00
31285;BME280;56605;51.516;6.742;2023-10-13T07:24:29;100595.22;;;22.40;100.00
31285;BME280;56605;51.516;6.742;2023-10-13T07:26:59;100591.25;;;22.70;100.00
31285;BME280;56605;51.516;6.742;2023-10-13T07:29:31;100588.34;;;22.77;100.00
31285;BME280;56605;51.516;6.742;2023-10-13T07:32:00;100584.09;;;22.86;100.00
31285;BME280;56605;51.516;6.742;2023-10-13T07:34:28;100582.94;;;23.04;100.00
31285;BME280;56605;51.516;6.742;2023-10-13T07:36:57;100582.53;;;22.68;100.00
31285;BME280;56605;51.516;6.742;2023-10-13T07:39:30;100581.66;;;22.45;100.00
31285;BME280;56605;51.516;6.742;2023-10-13T07:42:04;100588.88;;;22.34;100.00
31285;BME280;56605;51.516;6.742;2023-10-13T07:44:31;100579.31;;;22.54;100.00
31285;BME280;56605;51.516;6.742;2023-10-13T07:47:03;100581.09;;;22.43;100.00
31285;BME280;56605;51.516;6.742;2023-10-13T07:49:35;100586.44;;;22.77;100.00
31285;BME280;56605;51.516;6.742;2023-10-13T07:52:02;100568.81;;;23.08;100.00
31285;BME280;56605;51.516;6.742;2023-10-13T07:54:48;100585.50;;;22.89;100.00
31285;BME280;56605;51.516;6.742;2023-10-13T07:57:32;100577.63;;;22.92;100.00
31285;BME280;56605;51.516;6.742;2023-10-13T07:59:58;100566.31;;;23.01;100.00
31285;BME280;56605;51.516;6.742;2023-10-13T08:02:59;100566.69;;;23.10;100.00
31285;BME280;56605;51.516;6.742;2023-10-13T08:05:52;100559.22;;;23.00;100.00
31285;BME280;56605;51.516;6.742;2023-10-13T08:08:36;100553.00;;;23.04;100.00
31285;BME280;56605;51.516;6.742;2023-10-13T08:11:08;100550.34;;;23.10;100.00
31285;BME280;56605;51.516;6.742;2023-10-13T08:13:43;100541.69;;;23.18;100.00
31285;BME280;56605;51.516;6.742;2023-10-13T08:16:19;100537.97;;;23.24;100.00
31285;BME280;56605;51.516;6.742;2023-10-13T08:18:52;100539.09;;;23.61;100.00
31285;BME280;56605;51.516;6.742;2023-10-13T08:21:18;100540.53;;;23.69;100.00
31285;BME280;56605;51.516;6.742;2023-10-13T08:23:48;100520.31;;;23.65;100.00
31285;BME280;56605;51.516;6.742;2023-10-13T08:26:21;100522.03;;;24.14;100.00
31285;BME280;56605;51.516;6.742;2023-10-13T08:29:02;100511.94;;;24.15;100.00
31285;BME280;56605;51.516;6.742;2023-10-13T08:31:52;100511.59;;;24.06;100.00
31285;BME280;56605;51.516;6.742;2023-10-13T08:34:39;100510.97;;;24.42;100.00
31285;BME280;56605;51.516;6.742;2023-10-13T08:37:08;100512.41;;;24.55;100.00
31285;BME280;56605;51.516;6.742;2023-10-13T08:39:57;100497.34;;;24.47;100.00
31285;BME280;56605;51.516;6.742;2023-10-13T08:45:26;100487.66;;;24.93;100.00
31285;BME280;56605;51.516;6.742;2023-10-13T08:47:59;100495.88;;;25.29;100.00
31285;BME280;56605;51.516;6.742;2023-10-13T08:53:29;100484.94;;;24.93;100.00
31285;BME280;56605;51.516;6.742;2023-10-13T08:56:11;100479.47;;;25.19;100.00
31285;BME280;56605;51.516;6.742;2023-10-13T08:58:49;100481.13;;;25.10;100.00
31285;BME280;56605;51.516;6.742;2023-10-13T09:01:28;100470.75;;;25.17;100.00
31285;BME280;56605;51.516;6.742;2023-10-13T09:04:17;100477.28;;;25.26;100.00
31285;BME280;56605;51.516;6.742;2023-10-13T09:06:44;100465.84;;;25.14;100.00
31285;BME280;56605;51.516;6.742;2023-10-13T09:09:17;100473.19;;;25.24;100.00
31285;BME280;56605;51.516;6.742;2023-10-13T09:12:02;100465.03;;;25.29;100.00
31285;BME280;56605;51.516;6.742;2023-10-13T09:14:39;100468.03;;;25.38;100.00
31285;BME280;56605;51.516;6.742;2023-10-13T09:17:12;100469.09;;;25.47;100.00
31285;BME280;56605;51.516;6.742;2023-10-13T09:20:08;100464.16;;;25.70;100.00
31285;BME280;56605;51.516;6.742;2023-10-13T09:22:55;100461.69;;;25.79;100.00
31285;BME280;56605;51.516;6.742;2023-10-13T09:25:31;100451.78;;;25.99;100.00
31285;BME280;56605;51.516;6.742;2023-10-13T09:27:59;100456.63;;;26.12;100.00
31285;BME280;56605;51.516;6.742;2023-10-13T09:30:26;100443.94;;;25.76;100.00
31285;BME280;56605;51.516;6.742;2023-10-13T09:35:30;100427.88;;;26.20;100.00
31285;BME280;56605;51.516;6.742;2023-10-13T09:38:00;100414.69;;;25.56;100.00
31285;BME280;56605;51.516;6.742;2023-10-13T09:40:29;100442.72;;;26.03;100.00
31285;BME280;56605;51.516;6.742;2023-10-13T09:42:59;100440.84;;;25.99;100.00
31285;BME280;56605;51.516;6.742;2023-10-13T09:45:32;100408.38;;;26.37;100.00
31285;BME280;56605;51.516;6.742;2023-10-13T09:48:32;100425.72;;;26.17;100.00
31285;BME280;56605;51.516;6.742;2023-10-13T09:51:00;100415.16;;;25.94;99.34
31285;BME280;56605;51.516;6.742;2023-10-13T09:53:26;100408.22;;;26.13;96.66
31285;BME280;56605;51.516;6.742;2023-10-13T09:56:01;100404.88;;;26.31;94.86
31285;BME280;56605;51.516;6.742;2023-10-13T09:58:42;100414.81;;;26.62;95.40
31285;BME280;56605;51.516;6.742;2023-10-13T10:01:15;100410.47;;;26.91;90.89
31285;BME280;56605;51.516;6.742;2023-10-13T10:03:47;100411.59;;;26.90;89.04
31285;BME280;56605;51.516;6.742;2023-10-13T10:06:39;100399.00;;;26.54;93.46
31285;BME280;56605;51.516;6.742;2023-10-13T10:09:10;100400.97;;;25.87;93.21
31285;BME280;56605;51.516;6.742;2023-10-13T10:14:34;100397.84;;;26.15;96.55
31285;BME280;56605;51.516;6.742;2023-10-13T10:17:06;100381.06;;;26.32;95.18
31285;BME280;56605;51.516;6.742;2023-10-13T10:19:48;100397.69;;;27.16;88.86
31285;BME280;56605;51.516;6.742;2023-10-13T10:22:13;100388.88;;;26.89;87.45
31285;BME280;56605;51.516;6.742;2023-10-13T10:24:57;100400.56;;;26.15;90.56
31285;BME280;56605;51.516;6.742;2023-10-13T10:27:30;100387.00;;;25.89;91.91
31285;BME280;56605;51.516;6.742;2023-10-13T10:29:56;100394.22;;;25.69;93.37
31285;BME280;56605;51.516;6.742;2023-10-13T10:32:38;100390.66;;;25.53;94.89
31285;BME280;56605;51.516;6.742;2023-10-13T10:35:10;100406.00;;;25.43;94.40
31285;BME280;56605;51.516;6.742;2023-10-13T10:37:46;100393.97;;;25.60;94.60
31285;BME280;56605;51.516;6.742;2023-10-13T10:40:17;100387.63;;;25.70;92.79
31285;BME280;56605;51.516;6.742;2023-10-13T10:43:08;100394.00;;;26.11;91.08
31285;BME280;56605;51.516;6.742;2023-10-13T10:45:36;100384.22;;;25.99;91.10
31285;BME280;56605;51.516;6.742;2023-10-13T10:48:02;100372.28;;;25.85;90.77
31285;BME280;56605;51.516;6.742;2023-10-13T10:50:53;100378.09;;;26.18;90.94
31285;BME280;56605;51.516;6.742;2023-10-13T10:53:22;100372.50;;;25.99;89.95
31285;BME280;56605;51.516;6.742;2023-10-13T10:55:48;100373.88;;;25.91;90.54
31285;BME280;56605;51.516;6.742;2023-10-13T10:58:13;100358.03;;;25.88;90.03
31285;BME280;56605;51.516;6.742;2023-10-13T11:01:06;100358.50;;;26.00;90.89
31285;BME280;56605;51.516;6.742;2023-10-13T11:06:23;100357.94;;;26.08;89.82
31285;BME280;56605;51.516;6.742;2023-10-13T11:09:06;100350.75;;;26.18;90.00
31285;BME280;56605;51.516;6.742;2023-10-13T11:11:45;100340.84;;;26.73;85.16
31285;BME280;56605;51.516;6.742;2023-10-13T11:14:20;100337.25;;;26.37;86.12
31285;BME280;56605;51.516;6.742;2023-10-13T11:16:48;100336.47;;;26.37;86.17
31285;BME280;56605;51.516;6.742;2023-10-13T11:19:33;100332.09;;;26.70;84.92
31285;BME280;56605;51.516;6.742;2023-10-13T11:22:10;100323.28;;;28.20;75.51
31285;BME280;56605;51.516;6.742;2023-10-13T11:24:41;100322.16;;;29.49;69.28
31285;BME280;56605;51.516;6.742;2023-10-13T11:27:16;100322.16;;;29.49;69.42
31285;BME280;56605;51.516;6.742;2023-10-13T11:29:46;100316.00;;;29.95;66.05
31285;BME280;56605;51.516;6.742;2023-10-13T11:32:17;100313.22;;;29.58;67.11
31285;BME280;56605;51.516;6.742;2023-10-13T11:34:45;100310.56;;;30.04;67.30
31285;BME280;56605;51.516;6.742;2023-10-13T11:37:10;100302.53;;;30.30;62.65
31285;BME280;56605;51.516;6.742;2023-10-13T11:39:54;100294.13;;;30.81;61.48
31285;BME280;56605;51.516;6.742;2023-10-13T11:42:20;100289.75;;;30.34;63.80
31285;BME280;56605;51.516;6.742;2023-10-13T11:44:45;100282.50;;;28.66;69.33
31285;BME280;56605;51.516;6.742;2023-10-13T11:47:10;100279.59;;;28.05;72.78
31285;BME280;56605;51.516;6.742;2023-10-13T11:49:58;100297.69;;;27.67;74.44
31285;BME280;56605;51.516;6.742;2023-10-13T11:52:24;100297.59;;;27.72;76.61
31285;BME280;56605;51.516;6.742;2023-10-13T11:54:52;100290.91;;;28.56;71.45
31285;BME280;56605;51.516;6.742;2023-10-13T11:57:17;100276.03;;;28.43;68.88
31285;BME280;56605;51.516;6.742;2023-10-13T11:59:45;100281.19;;;28.78;66.66
31285;BME280;56605;51.516;6.742;2023-10-13T12:02:18;100280.22;;;28.54;67.15
31285;BME280;56605;51.516;6.742;2023-10-13T12:04:52;100286.25;;;28.37;68.67
31285;BME280;56605;51.516;6.742;2023-10-13T12:07:20;100273.75;;;28.78;68.10
31285;BME280;56605;51.516;6.742;2023-10-13T12:09:50;100279.91;;;29.31;64.71
31285;BME280;56605;51.516;6.742;2023-10-13T12:12:26;100253.41;;;28.65;66.97
31285;BME280;56605;51.516;6.742;2023-10-13T12:14:52;100263.97;;;28.05;68.90
31285;BME280;56605;51.516;6.742;2023-10-13T12:17:24;100246.09;;;27.69;70.73
31285;BME280;56605;51.516;6.742;2023-10-13T12:19:57;100247.53;;;27.62;71.40
31285;BME280;56605;51.516;6.742;2023-10-13T12:22:24;100246.31;;;27.54;71.88
31285;BME280;56605;51.516;6.742;2023-10-13T12:24:55;100252.63;;;27.05;70.32
31285;BME280;56605;51.516;6.742;2023-10-13T12:27:21;100244.59;;;27.14;74.14
31285;BME280;56605;51.516;6.742;2023-10-13T12:30:01;100239.00;;;27.00;72.40
31285;BME280;56605;51.516;6.742;2023-10-13T12:32:33;100231.94;;;27.18;71.39
31285;BME280;56605;51.516;6.742;2023-10-13T12:35:00;100233.16;;;27.07;70.23
31285;BME280;56605;51.516;6.742;2023-10-13T12:37:45;100225.25;;;27.05;68.67
31285;BME280;56605;51.516;6.742;2023-10-13T12:40:15;100230.66;;;27.11;69.77
31285;BME280;56605;51.516;6.742;2023-10-13T12:42:59;100220.03;;;27.28;68.87
31285;BME280;56605;51.516;6.742;2023-10-13T12:45:45;100230.00;;;26.94;68.62
31285;BME280;56605;51.516;6.742;2023-10-13T12:48:30;100232.00;;;27.13;67.27
31285;BME280;56605;51.516;6.742;2023-10-13T12:51:15;100226.31;;;27.09;68.50
31285;BME280;56605;51.516;6.742;2023-10-13T12:54:05;100233.53;;;26.95;67.68
31285;BME280;56605;51.516;6.742;2023-10-13T12:56:38;100220.50;;;26.87;66.67
31285;BME280;56605;51.516;6.742;2023-10-13T12:59:08;100242.75;;;26.80;66.11
31285;BME280;56605;51.516;6.742;2023-10-13T13:01:34;100231.22;;;26.83;66.24
31285;BME280;56605;51.516;6.742;2023-10-13T13:03:59;100238.13;;;27.05;66.87
31285;BME280;56605;51.516;6.742;2023-10-13T13:06:28;100233.34;;;27.16;66.36
31285;BME280;56605;51.516;6.742;2023-10-13T13:08:58;100239.63;;;26.92;66.15
31285;BME280;56605;51.516;6.742;2023-10-13T13:11:24;100228.69;;;27.16;65.74
31285;BME280;56605;51.516;6.742;2023-10-13T13:13:50;100236.59;;;26.93;65.18
31285;BME280;56605;51.516;6.742;2023-10-13T13:16:16;100230.81;;;26.95;65.06
31285;BME280;56605;51.516;6.742;2023-10-13T13:18:49;100216.59;;;27.17;64.32
31285;BME280;56605;51.516;6.742;2023-10-13T13:21:15;100226.03;;;27.11;64.06
31285;BME280;56605;51.516;6.742;2023-10-13T13:23:46;100222.91;;;27.18;63.31
31285;BME280;56605;51.516;6.742;2023-10-13T13:26:12;100221.13;;;27.08;65.30
31285;BME280;56605;51.516;6.742;2023-10-13T13:28:47;100214.38;;;26.95;64.64
31285;BME280;56605;51.516;6.742;2023-10-13T13:31:22;100227.25;;;26.94;64.68
31285;BME280;56605;51.516;6.742;2023-10-13T13:33:52;100225.91;;;27.21;62.16
31285;BME280;56605;51.516;6.742;2023-10-13T13:36:17;100218.75;;;27.20;62.73
31285;BME280;56605;51.516;6.742;2023-10-13T13:38:45;100224.06;;;27.12;62.88
31285;BME280;56605;51.516;6.742;2023-10-13T13:41:12;100222.00;;;26.74;63.84